This is the latest recevied weather packets stored in our database for station/object KC0CAU. If no packets are shown the sender has not sent any weather packets the latest 1 day(s).
| Time | Temp. | Humidity | Pressure | Rain* | Wind** | Luminosity | Snow |
|---|---|---|---|---|---|---|---|
| 1778014810 | 5.56° C | 49% | 1017.8 hPa | 0 mm | 2.68 m/s, 323° | - | - |
| 1778013905 | 6.11° C | 47% | 1017.8 hPa | 0 mm | 4.02 m/s, 310° | - | - |
| 1778013005 | 6.11° C | 47% | 1017.6 hPa | 0 mm | 4.92 m/s, 355° | - | - |
| 1778012111 | 6.67° C | 45% | 1017.6 hPa | 0 mm | 4.47 m/s, 331° | - | - |
| 1778011203 | 6.11° C | 46% | 1017.5 hPa | 0 mm | 4.02 m/s, 337° | - | - |
| 1778010302 | 6.11° C | 45% | 1017.4 hPa | 0 mm | 5.36 m/s, 5° | - | - |
| 1778009401 | 6.11° C | 45% | 1017.3 hPa | 0 mm | 4.92 m/s, 338° | - | - |
| 1778008583 | 6.11° C | 45% | 1017.3 hPa | 0 mm | 4.92 m/s, 340° | - | - |
| 1778007662 | 6.11° C | 44% | 1017.1 hPa | 0 mm | 4.47 m/s, 5° | - | - |
| 1778006757 | 6.11° C | 44% | 1017.2 hPa | 0 mm | 4.47 m/s, 313° | - | - |
| 1778005856 | 5.56° C | 45% | 1017.1 hPa | 0 mm | 4.02 m/s, 300° | - | - |
| 1778004954 | 5.56° C | 45% | 1017.2 hPa | 0 mm | 4.92 m/s, 347° | - | - |
| 1778004063 | 5.56° C | 48% | 1017.2 hPa | 0 mm | 4.47 m/s, 337° | - | - |
| 1778003162 | 5.56° C | 47% | 1017.1 hPa | 0 mm | 3.13 m/s, 21° | - | - |
| 1778002252 | 5.56° C | 47% | 1017.1 hPa | 0 mm | 3.58 m/s, 346° | - | - |
| 1778001351 | 5.56° C | 47% | 1017 hPa | 0 mm | 4.47 m/s, 324° | - | - |
| 1778000447 | 5° C | 49% | 1017.3 hPa | 0 mm | 3.58 m/s, 345° | - | - |
| 1777999548 | 4.44° C | 51% | 1017.2 hPa | 0 mm | 4.92 m/s, 331° | - | - |
| 1777998643 | 4.44° C | 50% | 1017.1 hPa | 0 mm | 3.58 m/s, 312° | - | - |
| 1777997750 | 4.44° C | 50% | 1017 hPa | 0 mm | 4.02 m/s, 345° | - | - |
| 1777996841 | 3.89° C | 54% | 1016.9 hPa | 0 mm | 3.13 m/s, 355° | - | - |
| 1777995959 | 3.89° C | 52% | 1017 hPa | 0 mm | 4.47 m/s, 300° | - | - |
| 1777995038 | 3.89° C | 57% | 1017.1 hPa | 0 mm | 3.58 m/s, 355° | - | - |
| 1777994137 | 3.89° C | 60% | 1017.1 hPa | 0 mm | 2.24 m/s, 306° | - | - |
| 1777993295 | 3.89° C | 60% | 1017.1 hPa | 0 mm | 4.02 m/s, 25° | - | - |
* Rain latest hour (hover to see other rain measurements)
** Current wind speed in m/s (hover to see current wind gust speed)